createdAt,value
2018-03-15T00:02:14.248Z,77.00
2018-03-15T00:04:40.748Z,77.00
2018-03-15T00:07:07.272Z,77.10
2018-03-15T00:09:33.782Z,77.60
2018-03-15T00:12:01.025Z,76.90
2018-03-15T00:14:27.556Z,76.80
2018-03-15T00:16:54.046Z,76.80
2018-03-15T00:19:20.576Z,76.90
2018-03-15T00:21:47.078Z,77.10
2018-03-15T00:24:14.321Z,77.90
2018-03-15T00:26:40.797Z,77.90
2018-03-15T00:29:07.328Z,77.80
2018-03-15T00:31:33.811Z,77.80
2018-03-15T00:34:00.302Z,77.30
2018-03-15T00:36:26.797Z,77.50
2018-03-15T00:38:53.333Z,77.40
2018-03-15T00:41:19.822Z,77.40
2018-03-15T00:43:46.320Z,77.30
2018-03-15T00:46:12.831Z,77.40
2018-03-15T00:48:39.342Z,77.50
2018-03-15T00:51:05.857Z,77.90
2018-03-15T00:53:32.378Z,78.40
2018-03-15T00:55:59.586Z,78.90
2018-03-15T00:58:26.091Z,78.90
2018-03-15T01:00:52.600Z,79.20
2018-03-15T01:03:19.089Z,79.50
2018-03-15T01:05:45.581Z,80.00
2018-03-15T01:08:12.066Z,80.00
2018-03-15T01:10:38.564Z,79.20
2018-03-15T01:13:05.149Z,79.20
2018-03-15T01:15:31.635Z,79.50
2018-03-15T01:17:58.114Z,79.20
2018-03-15T01:20:24.600Z,79.50
2018-03-15T01:22:51.078Z,79.20
2018-03-15T01:25:17.593Z,79.10
2018-03-15T01:27:44.091Z,79.30
2018-03-15T01:30:10.592Z,79.70
2018-03-15T01:32:37.127Z,79.50
2018-03-15T01:35:04.355Z,78.60
2018-03-15T01:37:30.862Z,78.50
2018-03-15T01:39:57.349Z,78.90
2018-03-15T01:42:23.848Z,79.70
2018-03-15T01:44:50.358Z,80.50
2018-03-15T01:47:16.874Z,80.50
2018-03-15T01:49:43.447Z,80.80
2018-03-15T01:52:09.922Z,80.60
2018-03-15T01:54:36.431Z,80.90
2018-03-15T01:57:03.027Z,81.30
2018-03-15T01:59:29.533Z,81.20
2018-03-15T02:01:56.815Z,81.20
2018-03-15T02:04:23.358Z,81.10
2018-03-15T02:06:49.845Z,81.60
2018-03-15T02:09:17.147Z,82.00
2018-03-15T02:11:43.630Z,82.00
2018-03-15T02:14:10.108Z,82.10
2018-03-15T02:16:36.601Z,82.10
2018-03-15T02:19:03.080Z,82.60
2018-03-15T02:21:29.576Z,81.60
2018-03-15T02:23:56.074Z,81.40
2018-03-15T02:26:22.588Z,81.40
2018-03-15T02:28:49.065Z,82.00
2018-03-15T02:31:15.551Z,80.70
2018-03-15T02:33:42.041Z,81.60
2018-03-15T02:36:09.299Z,83.10
2018-03-15T02:38:35.792Z,82.40
2018-03-15T02:41:02.276Z,82.70
2018-03-15T02:43:29.585Z,83.30
2018-03-15T02:45:56.084Z,83.40
2018-03-15T02:48:23.367Z,82.60
2018-03-15T02:50:49.859Z,82.60
2018-03-15T02:53:17.157Z,84.10
2018-03-15T02:55:43.661Z,84.10
2018-03-15T02:58:10.163Z,83.30
2018-03-15T03:00:36.683Z,82.90
2018-03-15T03:03:03.242Z,82.10
2018-03-15T03:05:29.762Z,82.60
2018-03-15T03:07:56.238Z,83.00
2018-03-15T03:10:22.804Z,83.30
2018-03-15T03:12:49.313Z,82.60
2018-03-15T03:15:15.796Z,83.20
2018-03-15T03:17:42.292Z,83.80
2018-03-15T03:20:08.819Z,84.10
2018-03-15T03:22:35.316Z,83.20
2018-03-15T03:25:01.803Z,82.80
2018-03-15T03:27:28.310Z,83.10
2018-03-15T03:29:55.525Z,82.70
2018-03-15T03:32:21.999Z,82.90
2018-03-15T03:34:48.520Z,83.20
2018-03-15T03:37:15.000Z,83.40
2018-03-15T03:39:41.526Z,83.50
2018-03-15T03:42:08.008Z,84.10
2018-03-15T03:44:34.522Z,83.50
2018-03-15T03:47:01.063Z,83.90
2018-03-15T03:49:27.587Z,83.60
2018-03-15T03:51:54.065Z,83.90
2018-03-15T03:54:20.559Z,84.30
2018-03-15T03:56:47.050Z,85.00
2018-03-15T03:59:13.550Z,85.40
2018-03-15T04:01:40.041Z,85.50
2018-03-15T04:04:06.549Z,86.00
2018-03-15T04:06:33.074Z,86.10
2018-03-15T04:08:59.559Z,86.60
2018-03-15T04:11:26.047Z,86.60
2018-03-15T04:13:52.690Z,86.90
2018-03-15T04:16:19.256Z,87.70
2018-03-15T04:18:45.730Z,87.80
2018-03-15T04:21:12.222Z,88.00
2018-03-15T04:23:38.703Z,88.30
2018-03-15T04:26:05.267Z,88.60
2018-03-15T04:28:31.780Z,89.00
2018-03-15T04:30:58.326Z,89.20
2018-03-15T04:33:24.839Z,88.80
2018-03-15T04:35:52.068Z,88.90
2018-03-15T04:38:19.157Z,88.90
2018-03-15T04:40:45.698Z,88.50
2018-03-15T04:43:12.195Z,88.00
2018-03-15T04:45:38.719Z,87.90
2018-03-15T04:48:05.227Z,87.70
2018-03-15T04:50:31.737Z,87.40
2018-03-15T04:52:58.233Z,87.70
2018-03-15T04:55:24.709Z,86.60
2018-03-15T04:57:51.954Z,86.40
2018-03-15T05:00:18.448Z,86.50
2018-03-15T05:02:44.953Z,87.30
2018-03-15T05:05:11.454Z,87.10
2018-03-15T05:07:38.686Z,87.80
2018-03-15T05:10:05.220Z,87.80
2018-03-15T05:12:31.699Z,88.10
2018-03-15T05:14:58.174Z,87.60
2018-03-15T05:17:24.720Z,87.30
2018-03-15T05:19:51.235Z,86.40
2018-03-15T05:22:17.721Z,87.10
2018-03-15T05:24:44.203Z,87.20
2018-03-15T05:27:10.707Z,86.30
2018-03-15T05:29:37.230Z,87.80
2018-03-15T05:32:03.726Z,88.80
2018-03-15T05:34:30.214Z,88.40
2018-03-15T05:36:56.677Z,88.50
2018-03-15T05:39:23.202Z,88.20
2018-03-15T05:41:49.694Z,87.70
2018-03-15T05:44:16.203Z,86.90
2018-03-15T05:46:42.701Z,87.10
2018-03-15T05:49:09.948Z,85.90
2018-03-15T05:51:37.199Z,86.90
2018-03-15T05:54:03.731Z,87.00
2018-03-15T05:56:30.994Z,88.50
2018-03-15T05:58:58.228Z,89.30
2018-03-15T06:01:24.709Z,89.30
2018-03-15T06:03:51.990Z,89.10
2018-03-15T06:06:18.478Z,89.00
2018-03-15T06:08:44.983Z,89.20
2018-03-15T06:11:11.481Z,88.90
2018-03-15T06:13:37.961Z,88.00
2018-03-15T06:16:05.279Z,86.80
2018-03-15T06:18:31.768Z,87.00
2018-03-15T06:20:59.004Z,87.20
2018-03-15T06:23:26.245Z,87.30
2018-03-15T06:25:52.776Z,87.30
2018-03-15T06:28:19.245Z,87.10
2018-03-15T06:30:45.835Z,87.20
2018-03-15T06:33:12.330Z,87.60
2018-03-15T06:35:38.852Z,87.60
2018-03-15T06:38:05.366Z,87.70
2018-03-15T06:40:31.847Z,87.50
2018-03-15T06:42:58.338Z,87.60
2018-03-15T06:45:25.581Z,87.80
2018-03-15T06:47:52.084Z,87.80
2018-03-15T06:50:18.551Z,88.50
2018-03-15T06:52:45.042Z,88.40
2018-03-15T06:55:11.549Z,88.80
2018-03-15T06:57:38.783Z,89.40
2018-03-15T07:00:06.015Z,89.50
2018-03-15T07:02:32.499Z,89.50
2018-03-15T07:04:59.030Z,88.50
2018-03-15T07:07:25.551Z,89.60
2018-03-15T07:09:52.782Z,90.20
2018-03-15T07:12:19.315Z,89.70
2018-03-15T07:14:45.862Z,90.00
2018-03-15T07:17:13.169Z,90.20
2018-03-15T07:19:39.650Z,90.20
2018-03-15T07:22:06.151Z,90.40
2018-03-15T07:24:33.383Z,89.60
2018-03-15T07:26:59.853Z,89.60
2018-03-15T07:29:26.372Z,90.00
2018-03-15T07:31:52.879Z,90.00
2018-03-15T07:34:19.401Z,90.10
2018-03-15T07:36:45.927Z,89.40
2018-03-15T07:39:13.162Z,88.60
2018-03-15T07:41:39.665Z,88.60
2018-03-15T07:44:06.135Z,88.50
2018-03-15T07:46:33.391Z,88.20
2018-03-15T07:49:00.645Z,87.90
2018-03-15T07:51:27.866Z,88.00
2018-03-15T07:53:54.373Z,87.90
2018-03-15T07:56:20.896Z,87.80
2018-03-15T07:58:47.377Z,88.10
2018-03-15T08:01:13.972Z,87.90
2018-03-15T08:03:41.048Z,87.30
2018-03-15T08:06:07.645Z,86.80
2018-03-15T08:08:34.126Z,86.60
2018-03-15T08:11:00.597Z,86.30
2018-03-15T08:13:27.822Z,84.00
2018-03-15T08:15:54.307Z,84.30
2018-03-15T08:18:20.788Z,83.80
2018-03-15T08:20:47.393Z,84.80
2018-03-15T08:23:13.906Z,84.80
2018-03-15T08:28:12.176Z,84.30
2018-03-15T08:30:39.406Z,83.70
2018-03-15T08:33:05.916Z,84.30
2018-03-15T08:35:32.416Z,83.40
2018-03-15T08:37:58.951Z,83.80
2018-03-15T08:40:25.439Z,83.70
2018-03-15T08:42:51.949Z,83.70
2018-03-15T08:45:18.421Z,83.20
2018-03-15T08:47:45.623Z,83.00
2018-03-15T08:50:12.097Z,82.80
2018-03-15T08:52:38.607Z,83.50
2018-03-15T08:55:05.173Z,83.20
2018-03-15T08:57:31.692Z,83.80
2018-03-15T08:59:58.182Z,84.20
2018-03-15T09:02:24.769Z,83.30
2018-03-15T09:04:51.675Z,83.70
2018-03-15T09:07:18.184Z,82.10
2018-03-15T09:09:44.638Z,81.60
2018-03-15T09:12:11.162Z,81.10
2018-03-15T09:14:37.655Z,81.20
2018-03-15T09:17:04.147Z,80.80
2018-03-15T09:19:30.657Z,79.60
2018-03-15T09:21:57.156Z,79.90
2018-03-15T09:24:23.632Z,81.40
2018-03-15T09:26:50.125Z,81.80
2018-03-15T09:29:16.662Z,81.20
2018-03-15T09:31:43.144Z,78.80
2018-03-15T09:34:09.696Z,78.70
2018-03-15T09:36:36.196Z,79.30
2018-03-15T09:39:03.618Z,79.30
2018-03-15T09:41:30.114Z,79.30
2018-03-15T09:43:56.693Z,79.00
2018-03-15T09:46:23.223Z,79.00
2018-03-15T09:48:49.785Z,78.90
2018-03-15T09:51:17.116Z,79.80
2018-03-15T09:53:43.564Z,79.80
2018-03-15T09:56:10.089Z,80.50
2018-03-15T09:58:36.622Z,79.10
2018-03-15T10:01:03.167Z,78.50
2018-03-15T10:03:29.644Z,77.70
2018-03-15T10:05:56.184Z,77.80
2018-03-15T10:08:22.695Z,78.10
2018-03-15T10:10:49.219Z,76.50
2018-03-15T10:13:16.494Z,75.50
2018-03-15T10:15:43.005Z,75.50
2018-03-15T10:18:09.673Z,75.00
2018-03-15T10:20:36.165Z,75.50
2018-03-15T10:23:02.657Z,75.30
2018-03-15T10:25:29.232Z,75.70
2018-03-15T10:27:55.702Z,74.80
2018-03-15T10:30:22.200Z,72.90
2018-03-15T10:32:54.648Z,71.60
2018-03-15T10:35:27.213Z,72.50
2018-03-15T10:37:53.816Z,72.40
2018-03-15T10:40:21.123Z,73.10
2018-03-15T10:42:47.671Z,73.10
2018-03-15T10:45:14.173Z,73.00
2018-03-15T10:47:40.691Z,72.80
2018-03-15T10:50:07.222Z,72.80
2018-03-15T10:52:34.562Z,73.10
2018-03-15T10:55:01.064Z,73.10
2018-03-15T10:57:28.322Z,73.50
2018-03-15T10:59:54.895Z,73.40
2018-03-15T11:02:21.444Z,72.00
2018-03-15T11:04:53.782Z,69.70
2018-03-15T11:07:26.214Z,69.00
2018-03-15T11:09:52.749Z,69.70
2018-03-15T11:12:19.289Z,70.70
2018-03-15T11:14:45.837Z,70.20
2018-03-15T11:17:12.328Z,69.00
2018-03-15T11:19:38.841Z,69.10
2018-03-15T11:22:05.406Z,69.00
2018-03-15T11:24:31.942Z,68.60
2018-03-15T11:26:59.191Z,67.00
2018-03-15T11:29:26.344Z,67.20
2018-03-15T11:31:52.866Z,65.80
2018-03-15T11:34:20.175Z,67.20
2018-03-15T11:36:46.714Z,67.30
2018-03-15T11:39:13.222Z,67.10
2018-03-15T11:41:39.767Z,66.20
2018-03-15T11:44:06.260Z,66.10
2018-03-15T11:46:33.497Z,66.20
2018-03-15T11:49:00.025Z,66.20
2018-03-15T11:51:26.562Z,66.60
2018-03-15T11:53:53.835Z,64.20
2018-03-15T11:56:20.311Z,64.20
2018-03-15T11:58:46.792Z,64.40
2018-03-15T12:01:13.313Z,63.20
2018-03-15T12:03:39.921Z,63.40
2018-03-15T12:06:06.484Z,64.80
2018-03-15T12:08:33.733Z,61.00
2018-03-15T12:11:00.309Z,61.00
2018-03-15T12:13:27.609Z,59.90
2018-03-15T12:15:54.154Z,60.00
2018-03-15T12:18:20.625Z,61.20
2018-03-15T12:20:47.128Z,61.60
2018-03-15T12:23:13.633Z,61.50
2018-03-15T12:25:40.121Z,61.40
2018-03-15T12:28:06.612Z,62.80
2018-03-15T12:30:33.133Z,62.50
2018-03-15T12:32:59.621Z,61.90
2018-03-15T12:35:26.140Z,62.90
2018-03-15T12:37:52.684Z,62.60
2018-03-15T12:40:19.221Z,62.70
2018-03-15T12:42:45.766Z,62.70
2018-03-15T12:45:12.316Z,61.60
2018-03-15T12:47:38.772Z,61.20
2018-03-15T12:50:05.359Z,61.10
2018-03-15T12:52:31.839Z,61.70
2018-03-15T12:54:58.338Z,61.50
2018-03-15T12:57:24.907Z,62.60
2018-03-15T12:59:51.357Z,62.30
2018-03-15T13:02:17.862Z,62.50
2018-03-15T13:04:44.358Z,63.60
2018-03-15T13:07:10.837Z,63.70
2018-03-15T13:09:37.393Z,63.70
2018-03-15T13:12:03.893Z,63.80
2018-03-15T13:14:30.375Z,63.60
2018-03-15T13:16:56.859Z,63.30
2018-03-15T13:19:23.345Z,63.20
2018-03-15T13:21:49.832Z,64.20
2018-03-15T13:24:16.302Z,64.10
2018-03-15T13:26:42.841Z,62.00
2018-03-15T13:29:09.372Z,62.10
2018-03-15T13:31:35.915Z,60.80
2018-03-15T13:34:02.416Z,61.90
2018-03-15T13:36:28.901Z,62.20
2018-03-15T13:38:55.415Z,60.20
2018-03-15T13:41:21.915Z,57.60
2018-03-15T13:43:48.437Z,56.50
2018-03-15T13:46:14.893Z,56.00
2018-03-15T13:48:41.432Z,55.80
2018-03-15T13:51:07.926Z,55.70
2018-03-15T13:53:34.434Z,55.80
2018-03-15T13:56:00.966Z,55.80
2018-03-15T13:58:27.447Z,55.80
2018-03-15T14:00:53.945Z,56.70
2018-03-15T14:03:20.456Z,57.20
2018-03-15T14:05:47.680Z,56.90
2018-03-15T14:08:14.165Z,57.00
2018-03-15T14:10:40.695Z,57.90
2018-03-15T14:13:07.195Z,58.50
2018-03-15T14:15:33.728Z,58.30
2018-03-15T14:18:00.221Z,57.50
2018-03-15T14:20:26.769Z,57.80
2018-03-15T14:22:53.279Z,58.70
2018-03-15T14:25:19.779Z,58.90
2018-03-15T14:27:46.361Z,58.30
2018-03-15T14:30:12.856Z,58.90
2018-03-15T14:32:40.106Z,58.50
2018-03-15T14:35:07.371Z,59.30
2018-03-15T14:37:34.609Z,59.30
2018-03-15T14:40:01.116Z,59.20
2018-03-15T14:42:27.754Z,59.00
2018-03-15T14:44:54.297Z,59.30
2018-03-15T14:47:20.930Z,59.50
2018-03-15T14:49:47.440Z,59.80
2018-03-15T14:52:13.941Z,60.20
2018-03-15T14:54:40.529Z,60.30
2018-03-15T14:57:07.150Z,61.50
2018-03-15T14:59:33.819Z,61.30
2018-03-15T15:02:00.324Z,61.40
2018-03-15T15:04:26.965Z,61.60
2018-03-15T15:06:53.683Z,62.00
2018-03-15T15:09:20.165Z,61.70
2018-03-15T15:11:46.699Z,62.60
2018-03-15T15:14:13.214Z,63.50
2018-03-15T15:16:39.696Z,63.70
2018-03-15T15:19:06.973Z,63.60
2018-03-15T15:21:33.583Z,63.60
2018-03-15T15:24:00.092Z,64.00
2018-03-15T15:26:26.583Z,64.60
2018-03-15T15:28:53.148Z,64.00
2018-03-15T15:31:19.619Z,64.20
2018-03-15T15:33:46.102Z,65.20
2018-03-15T15:36:12.607Z,65.90
2018-03-15T15:38:39.833Z,65.90
2018-03-15T15:41:07.062Z,66.80
2018-03-15T15:43:33.645Z,66.00
2018-03-15T15:46:00.990Z,66.70
2018-03-15T15:48:27.486Z,66.60
2018-03-15T15:50:53.984Z,66.80
2018-03-15T15:53:21.241Z,66.60
2018-03-15T15:55:47.756Z,66.60
2018-03-15T15:58:15.041Z,67.80
2018-03-15T16:00:41.559Z,67.70
2018-03-15T16:03:08.162Z,68.30
2018-03-15T16:05:34.716Z,68.50
2018-03-15T16:08:01.957Z,68.00
2018-03-15T16:10:28.482Z,68.00
2018-03-15T16:12:54.989Z,68.10
2018-03-15T16:15:21.518Z,67.80
2018-03-15T16:17:48.018Z,68.00
2018-03-15T16:20:15.265Z,68.30
2018-03-15T16:22:42.514Z,68.10
2018-03-15T16:25:09.061Z,68.20
2018-03-15T16:27:36.282Z,68.80
2018-03-15T16:30:02.851Z,68.90
2018-03-15T16:32:29.343Z,69.20
2018-03-15T16:34:56.594Z,69.70
2018-03-15T16:37:23.082Z,69.50
2018-03-15T16:39:49.577Z,69.50
2018-03-15T16:42:16.083Z,69.20
2018-03-15T16:44:42.650Z,69.40
2018-03-15T16:47:09.839Z,69.40
2018-03-15T16:49:36.331Z,69.10
2018-03-15T16:52:02.832Z,69.50
2018-03-15T16:54:29.295Z,69.50
2018-03-15T16:56:55.793Z,69.70
2018-03-15T16:59:22.284Z,69.50
2018-03-15T17:01:48.863Z,69.50
2018-03-15T17:04:15.382Z,69.90
2018-03-15T17:06:41.882Z,70.00
2018-03-15T17:09:09.174Z,70.40
2018-03-15T17:11:35.675Z,70.10
2018-03-15T17:14:02.162Z,70.50
2018-03-15T17:16:28.650Z,71.90
2018-03-15T17:18:55.146Z,71.60
2018-03-15T17:21:21.650Z,71.80
2018-03-15T17:23:48.134Z,71.70
2018-03-15T17:26:14.654Z,72.10
2018-03-15T17:28:41.160Z,72.00
2018-03-15T17:31:07.687Z,72.50
2018-03-15T17:33:34.918Z,72.90
2018-03-15T17:36:01.402Z,73.90
2018-03-15T17:38:27.892Z,74.60
2018-03-15T17:40:55.162Z,73.10
2018-03-15T17:43:22.414Z,75.20
2018-03-15T17:45:49.658Z,75.30
2018-03-15T17:48:16.934Z,75.10
2018-03-15T17:50:43.427Z,75.10
2018-03-15T17:53:09.889Z,74.90
2018-03-15T17:55:36.430Z,76.00
2018-03-15T17:58:03.079Z,75.20
2018-03-15T18:00:29.591Z,75.70
2018-03-15T18:02:56.110Z,75.30
2018-03-15T18:05:22.638Z,76.10
2018-03-15T18:07:49.168Z,76.40
2018-03-15T18:10:15.693Z,75.90
2018-03-15T18:12:42.238Z,73.80
2018-03-15T18:15:08.812Z,73.00
2018-03-15T18:17:35.339Z,70.60
2018-03-15T18:20:01.848Z,69.50
2018-03-15T18:22:28.410Z,68.10
2018-03-15T18:24:54.939Z,66.00
2018-03-15T18:27:22.199Z,65.60
2018-03-15T18:29:49.424Z,65.30
2018-03-15T18:32:15.933Z,65.30
2018-03-15T18:34:42.438Z,64.50
2018-03-15T18:37:08.960Z,64.30
2018-03-15T18:39:35.495Z,62.10
2018-03-15T18:42:02.749Z,62.60
2018-03-15T18:44:30.025Z,63.00
2018-03-15T18:46:56.533Z,63.10
2018-03-15T18:49:23.067Z,63.00
2018-03-15T18:51:49.558Z,62.20
2018-03-15T18:54:16.050Z,63.30
2018-03-15T18:56:42.617Z,63.20
2018-03-15T18:59:09.199Z,61.10
2018-03-15T19:01:35.729Z,61.40
2018-03-15T19:04:02.245Z,59.70
2018-03-15T19:06:29.479Z,60.00
2018-03-15T19:08:56.012Z,60.00
2018-03-15T19:11:22.724Z,60.60
2018-03-15T19:13:49.240Z,62.20
2018-03-15T19:16:16.477Z,60.50
2018-03-15T19:18:43.146Z,60.50
2018-03-15T19:21:10.412Z,59.50
2018-03-15T19:23:36.961Z,59.50
2018-03-15T19:26:03.477Z,59.60
2018-03-15T19:28:29.981Z,59.70
2018-03-15T19:30:56.669Z,59.90
2018-03-15T19:33:23.351Z,59.70
2018-03-15T19:35:49.999Z,59.50
2018-03-15T19:38:16.556Z,59.50
2018-03-15T19:40:43.798Z,58.70
2018-03-15T19:43:11.066Z,58.10
2018-03-15T19:45:38.292Z,57.60
2018-03-15T19:48:04.896Z,57.60
2018-03-15T19:50:31.425Z,58.10
2018-03-15T19:52:57.909Z,58.00
2018-03-15T19:55:24.622Z,57.60
2018-03-15T19:57:51.363Z,57.30
2018-03-15T20:00:17.860Z,57.30
2018-03-15T20:02:44.440Z,56.70
2018-03-15T20:05:10.937Z,57.10
2018-03-15T20:07:37.475Z,57.00
2018-03-15T20:10:03.985Z,56.60
2018-03-15T20:12:30.710Z,56.90
2018-03-15T20:14:58.079Z,56.40
2018-03-15T20:17:24.607Z,56.40
2018-03-15T20:19:51.851Z,56.80
2018-03-15T20:22:25.088Z,57.40
2018-03-15T20:24:51.655Z,57.30
2018-03-15T20:30:20.464Z,56.60
2018-03-15T20:32:53.058Z,56.70
2018-03-15T20:35:19.566Z,57.00
2018-03-15T20:37:46.068Z,57.00
2018-03-15T20:40:18.585Z,57.40
2018-03-15T20:42:45.077Z,57.70
2018-03-15T20:45:17.551Z,57.20
2018-03-15T20:47:50.110Z,57.90
2018-03-15T20:50:17.408Z,59.30
2018-03-15T20:52:43.932Z,59.30
2018-03-15T20:55:10.478Z,59.00
2018-03-15T20:57:36.955Z,59.00
2018-03-15T21:00:03.508Z,59.80
2018-03-15T21:02:30.023Z,59.80
2018-03-15T21:04:56.503Z,60.60
2018-03-15T21:07:23.052Z,59.90
2018-03-15T21:09:49.612Z,61.70
2018-03-15T21:12:16.213Z,62.20
2018-03-15T21:14:42.726Z,62.40
2018-03-15T21:17:09.274Z,62.30
2018-03-15T21:19:35.778Z,62.60
2018-03-15T21:22:02.290Z,62.80
2018-03-15T21:24:28.846Z,64.40
2018-03-15T21:26:55.333Z,64.70
2018-03-15T21:29:21.811Z,65.50
2018-03-15T21:31:48.338Z,66.10
2018-03-15T21:34:14.833Z,66.00
2018-03-15T21:36:41.306Z,66.50
2018-03-15T21:39:07.788Z,65.70
2018-03-15T21:41:34.255Z,66.20
2018-03-15T21:44:00.776Z,65.90
2018-03-15T21:46:27.349Z,65.70
2018-03-15T21:48:53.855Z,65.90
2018-03-15T21:51:20.420Z,65.90
2018-03-15T21:53:46.991Z,65.50
2018-03-15T21:56:13.489Z,66.60
2018-03-15T21:58:40.082Z,65.90
2018-03-15T22:01:06.605Z,66.20
2018-03-15T22:03:33.513Z,67.30
2018-03-15T22:06:00.001Z,66.90
2018-03-15T22:08:26.511Z,66.80
2018-03-15T22:10:52.991Z,67.10
2018-03-15T22:13:19.534Z,66.70
2018-03-15T22:15:46.010Z,67.30
2018-03-15T22:18:12.489Z,67.40
2018-03-15T22:20:39.038Z,68.00
2018-03-15T22:23:05.556Z,67.80
2018-03-15T22:25:32.055Z,67.00
2018-03-15T22:27:59.285Z,64.70
2018-03-15T22:30:25.827Z,64.80
2018-03-15T22:32:52.295Z,65.80
2018-03-15T22:35:18.852Z,66.90
2018-03-15T22:37:45.403Z,67.20
2018-03-15T22:40:11.875Z,66.80
2018-03-15T22:42:39.151Z,67.60
2018-03-15T22:45:05.620Z,67.80
2018-03-15T22:47:32.172Z,68.30
2018-03-15T22:49:59.382Z,68.60
2018-03-15T22:52:25.878Z,68.30
2018-03-15T22:54:52.386Z,69.00
2018-03-15T22:57:18.920Z,69.00
2018-03-15T22:59:45.429Z,70.00
2018-03-15T23:02:11.921Z,69.90
2018-03-15T23:04:38.407Z,70.60
2018-03-15T23:07:04.926Z,70.90
2018-03-15T23:09:31.416Z,70.60
2018-03-15T23:11:57.894Z,71.00
2018-03-15T23:14:24.464Z,71.00
2018-03-15T23:16:50.938Z,71.00
2018-03-15T23:19:18.213Z,71.90
2018-03-15T23:21:44.710Z,71.80
2018-03-15T23:24:11.248Z,71.30
2018-03-15T23:26:37.725Z,72.50
2018-03-15T23:29:04.217Z,72.50
2018-03-15T23:31:30.718Z,72.70
2018-03-15T23:33:57.190Z,73.30
2018-03-15T23:36:24.428Z,73.20
2018-03-15T23:38:50.913Z,73.20
2018-03-15T23:41:17.400Z,73.40
2018-03-15T23:43:43.876Z,73.10
2018-03-15T23:46:10.364Z,73.30
2018-03-15T23:48:37.626Z,73.60
2018-03-15T23:51:04.184Z,73.60
2018-03-15T23:53:30.698Z,73.40
2018-03-15T23:55:57.221Z,73.00
2018-03-15T23:58:23.730Z,73.20
